sensor_id;sensor_type;location;lat;lon;timestamp;P1;durP1;ratioP1;P2;durP2;ratioP2
29686;SDS011;16599;47.078;15.536;2023-04-15T00:00:57;5.30;;;2.10;;
29686;SDS011;16599;47.078;15.536;2023-04-15T00:03:25;3.65;;;2.50;;
29686;SDS011;16599;47.078;15.536;2023-04-15T00:05:52;2.58;;;2.22;;
29686;SDS011;16599;47.078;15.536;2023-04-15T00:08:19;2.72;;;2.13;;
29686;SDS011;16599;47.078;15.536;2023-04-15T00:10:46;3.15;;;2.45;;
29686;SDS011;16599;47.078;15.536;2023-04-15T00:13:13;3.50;;;2.28;;
29686;SDS011;16599;47.078;15.536;2023-04-15T00:15:40;2.95;;;2.30;;
29686;SDS011;16599;47.078;15.536;2023-04-15T00:18:08;6.00;;;2.70;;
29686;SDS011;16599;47.078;15.536;2023-04-15T00:20:35;2.67;;;2.45;;
29686;SDS011;16599;47.078;15.536;2023-04-15T00:23:02;3.03;;;2.72;;
29686;SDS011;16599;47.078;15.536;2023-04-15T00:25:30;3.28;;;2.28;;
29686;SDS011;16599;47.078;15.536;2023-04-15T00:27:57;3.28;;;2.60;;
29686;SDS011;16599;47.078;15.536;2023-04-15T00:30:24;6.25;;;3.03;;
29686;SDS011;16599;47.078;15.536;2023-04-15T00:32:51;3.50;;;2.65;;
29686;SDS011;16599;47.078;15.536;2023-04-15T00:35:18;2.90;;;2.33;;
29686;SDS011;16599;47.078;15.536;2023-04-15T00:37:46;2.70;;;2.38;;
29686;SDS011;16599;47.078;15.536;2023-04-15T00:40:12;5.25;;;2.47;;
29686;SDS011;16599;47.078;15.536;2023-04-15T00:42:42;4.10;;;2.72;;
29686;SDS011;16599;47.078;15.536;2023-04-15T00:45:08;4.15;;;2.95;;
29686;SDS011;16599;47.078;15.536;2023-04-15T00:47:36;3.80;;;2.58;;
29686;SDS011;16599;47.078;15.536;2023-04-15T00:50:04;5.25;;;2.58;;
29686;SDS011;16599;47.078;15.536;2023-04-15T00:52:31;8.52;;;2.90;;
29686;SDS011;16599;47.078;15.536;2023-04-15T00:54:59;6.93;;;2.70;;
29686;SDS011;16599;47.078;15.536;2023-04-15T00:57:27;4.95;;;2.60;;
29686;SDS011;16599;47.078;15.536;2023-04-15T00:59:54;3.80;;;2.20;;
29686;SDS011;16599;47.078;15.536;2023-04-15T01:02:22;2.92;;;2.38;;
29686;SDS011;16599;47.078;15.536;2023-04-15T01:04:49;3.75;;;2.25;;
29686;SDS011;16599;47.078;15.536;2023-04-15T01:07:17;5.00;;;2.40;;
29686;SDS011;16599;47.078;15.536;2023-04-15T01:09:44;3.42;;;2.90;;
29686;SDS011;16599;47.078;15.536;2023-04-15T01:12:11;3.55;;;2.67;;
29686;SDS011;16599;47.078;15.536;2023-04-15T01:14:40;4.93;;;2.88;;
29686;SDS011;16599;47.078;15.536;2023-04-15T01:17:07;3.83;;;2.95;;
29686;SDS011;16599;47.078;15.536;2023-04-15T01:19:35;5.85;;;3.17;;
29686;SDS011;16599;47.078;15.536;2023-04-15T01:22:02;4.20;;;3.03;;
29686;SDS011;16599;47.078;15.536;2023-04-15T01:24:29;6.95;;;2.83;;
29686;SDS011;16599;47.078;15.536;2023-04-15T01:26:58;4.13;;;3.15;;
29686;SDS011;16599;47.078;15.536;2023-04-15T01:29:25;3.05;;;2.75;;
29686;SDS011;16599;47.078;15.536;2023-04-15T01:31:53;4.55;;;2.90;;
29686;SDS011;16599;47.078;15.536;2023-04-15T01:34:21;4.25;;;2.67;;
29686;SDS011;16599;47.078;15.536;2023-04-15T01:36:48;4.45;;;2.65;;
29686;SDS011;16599;47.078;15.536;2023-04-15T01:39:15;3.67;;;2.80;;
29686;SDS011;16599;47.078;15.536;2023-04-15T01:41:42;4.15;;;3.08;;
29686;SDS011;16599;47.078;15.536;2023-04-15T01:44:09;4.80;;;3.25;;
29686;SDS011;16599;47.078;15.536;2023-04-15T01:46:36;8.60;;;4.20;;
29686;SDS011;16599;47.078;15.536;2023-04-15T01:49:03;5.35;;;3.20;;
29686;SDS011;16599;47.078;15.536;2023-04-15T01:51:30;5.35;;;3.60;;
29686;SDS011;16599;47.078;15.536;2023-04-15T01:53:57;5.07;;;3.05;;
29686;SDS011;16599;47.078;15.536;2023-04-15T01:56:24;5.30;;;3.38;;
29686;SDS011;16599;47.078;15.536;2023-04-15T01:58:51;4.05;;;3.00;;
29686;SDS011;16599;47.078;15.536;2023-04-15T02:01:18;4.05;;;3.08;;
29686;SDS011;16599;47.078;15.536;2023-04-15T02:03:46;5.35;;;3.15;;
29686;SDS011;16599;47.078;15.536;2023-04-15T02:06:13;12.15;;;6.72;;
29686;SDS011;16599;47.078;15.536;2023-04-15T02:08:40;5.10;;;3.47;;
29686;SDS011;16599;47.078;15.536;2023-04-15T02:11:07;3.10;;;2.80;;
29686;SDS011;16599;47.078;15.536;2023-04-15T02:13:34;4.25;;;2.90;;
29686;SDS011;16599;47.078;15.536;2023-04-15T02:16:01;4.43;;;3.47;;
29686;SDS011;16599;47.078;15.536;2023-04-15T02:18:29;6.38;;;2.88;;
29686;SDS011;16599;47.078;15.536;2023-04-15T02:20:56;7.25;;;2.92;;
29686;SDS011;16599;47.078;15.536;2023-04-15T02:23:24;4.07;;;2.95;;
29686;SDS011;16599;47.078;15.536;2023-04-15T02:25:51;3.90;;;2.90;;
29686;SDS011;16599;47.078;15.536;2023-04-15T02:28:19;12.73;;;3.58;;
29686;SDS011;16599;47.078;15.536;2023-04-15T02:30:47;14.23;;;5.03;;
29686;SDS011;16599;47.078;15.536;2023-04-15T02:33:18;6.95;;;3.20;;
29686;SDS011;16599;47.078;15.536;2023-04-15T02:35:46;5.78;;;3.13;;
29686;SDS011;16599;47.078;15.536;2023-04-15T02:38:13;3.90;;;3.20;;
29686;SDS011;16599;47.078;15.536;2023-04-15T02:40:43;3.25;;;2.95;;
29686;SDS011;16599;47.078;15.536;2023-04-15T02:43:09;4.55;;;3.13;;
29686;SDS011;16599;47.078;15.536;2023-04-15T02:45:36;6.97;;;3.20;;
29686;SDS011;16599;47.078;15.536;2023-04-15T02:48:03;4.30;;;3.42;;
29686;SDS011;16599;47.078;15.536;2023-04-15T02:50:32;7.53;;;3.00;;
29686;SDS011;16599;47.078;15.536;2023-04-15T02:52:59;3.72;;;3.08;;
29686;SDS011;16599;47.078;15.536;2023-04-15T02:55:28;5.63;;;3.10;;
29686;SDS011;16599;47.078;15.536;2023-04-15T02:57:55;7.88;;;3.03;;
29686;SDS011;16599;47.078;15.536;2023-04-15T03:00:24;3.20;;;2.90;;
29686;SDS011;16599;47.078;15.536;2023-04-15T03:02:56;4.03;;;2.80;;
29686;SDS011;16599;47.078;15.536;2023-04-15T03:05:24;4.05;;;3.15;;
29686;SDS011;16599;47.078;15.536;2023-04-15T03:07:52;4.18;;;3.50;;
29686;SDS011;16599;47.078;15.536;2023-04-15T03:10:19;4.20;;;3.30;;
29686;SDS011;16599;47.078;15.536;2023-04-15T03:12:47;8.27;;;4.70;;
29686;SDS011;16599;47.078;15.536;2023-04-15T03:15:14;9.93;;;7.28;;
29686;SDS011;16599;47.078;15.536;2023-04-15T03:17:41;6.45;;;4.00;;
29686;SDS011;16599;47.078;15.536;2023-04-15T03:20:08;5.50;;;3.38;;
29686;SDS011;16599;47.078;15.536;2023-04-15T03:22:36;8.68;;;3.35;;
29686;SDS011;16599;47.078;15.536;2023-04-15T03:25:03;4.35;;;3.70;;
29686;SDS011;16599;47.078;15.536;2023-04-15T03:27:30;4.93;;;3.42;;
29686;SDS011;16599;47.078;15.536;2023-04-15T03:29:57;5.90;;;3.70;;
29686;SDS011;16599;47.078;15.536;2023-04-15T03:32:24;4.57;;;4.13;;
29686;SDS011;16599;47.078;15.536;2023-04-15T03:34:51;9.90;;;6.85;;
29686;SDS011;16599;47.078;15.536;2023-04-15T03:37:17;11.88;;;5.43;;
29686;SDS011;16599;47.078;15.536;2023-04-15T03:39:44;5.00;;;4.07;;
29686;SDS011;16599;47.078;15.536;2023-04-15T03:42:11;5.70;;;4.20;;
29686;SDS011;16599;47.078;15.536;2023-04-15T03:44:38;5.72;;;4.18;;
29686;SDS011;16599;47.078;15.536;2023-04-15T03:47:05;7.00;;;4.80;;
29686;SDS011;16599;47.078;15.536;2023-04-15T03:49:32;8.77;;;4.60;;
29686;SDS011;16599;47.078;15.536;2023-04-15T03:51:59;8.90;;;4.82;;
29686;SDS011;16599;47.078;15.536;2023-04-15T03:54:26;5.43;;;4.05;;
29686;SDS011;16599;47.078;15.536;2023-04-15T03:56:53;6.28;;;4.35;;
29686;SDS011;16599;47.078;15.536;2023-04-15T03:59:21;7.82;;;4.28;;
29686;SDS011;16599;47.078;15.536;2023-04-15T04:01:48;6.25;;;4.32;;
29686;SDS011;16599;47.078;15.536;2023-04-15T04:04:15;7.80;;;5.22;;
29686;SDS011;16599;47.078;15.536;2023-04-15T04:06:42;6.00;;;4.70;;
29686;SDS011;16599;47.078;15.536;2023-04-15T04:09:09;5.30;;;4.43;;
29686;SDS011;16599;47.078;15.536;2023-04-15T04:11:36;6.47;;;4.65;;
29686;SDS011;16599;47.078;15.536;2023-04-15T04:14:02;5.15;;;4.63;;
29686;SDS011;16599;47.078;15.536;2023-04-15T04:16:29;9.27;;;4.80;;
29686;SDS011;16599;47.078;15.536;2023-04-15T04:18:56;11.88;;;4.75;;
29686;SDS011;16599;47.078;15.536;2023-04-15T04:21:23;8.77;;;6.28;;
29686;SDS011;16599;47.078;15.536;2023-04-15T04:23:50;21.45;;;9.68;;
29686;SDS011;16599;47.078;15.536;2023-04-15T04:26:17;11.38;;;6.78;;
29686;SDS011;16599;47.078;15.536;2023-04-15T04:28:45;8.20;;;5.93;;
29686;SDS011;16599;47.078;15.536;2023-04-15T04:31:11;12.70;;;5.85;;
29686;SDS011;16599;47.078;15.536;2023-04-15T04:33:38;9.05;;;6.20;;
29686;SDS011;16599;47.078;15.536;2023-04-15T04:36:05;7.95;;;5.55;;
29686;SDS011;16599;47.078;15.536;2023-04-15T04:38:32;10.63;;;6.20;;
29686;SDS011;16599;47.078;15.536;2023-04-15T04:40:59;8.55;;;5.63;;
29686;SDS011;16599;47.078;15.536;2023-04-15T04:43:26;9.13;;;6.25;;
29686;SDS011;16599;47.078;15.536;2023-04-15T04:45:54;24.50;;;21.23;;
29686;SDS011;16599;47.078;15.536;2023-04-15T04:48:21;15.15;;;10.55;;
29686;SDS011;16599;47.078;15.536;2023-04-15T04:50:48;15.15;;;8.65;;
29686;SDS011;16599;47.078;15.536;2023-04-15T04:53:15;12.98;;;8.05;;
29686;SDS011;16599;47.078;15.536;2023-04-15T04:55:43;15.50;;;9.38;;
29686;SDS011;16599;47.078;15.536;2023-04-15T04:58:10;12.93;;;8.52;;
29686;SDS011;16599;47.078;15.536;2023-04-15T05:00:36;13.85;;;8.73;;
29686;SDS011;16599;47.078;15.536;2023-04-15T05:03:03;10.82;;;7.32;;
29686;SDS011;16599;47.078;15.536;2023-04-15T05:05:30;11.82;;;8.02;;
29686;SDS011;16599;47.078;15.536;2023-04-15T05:07:57;13.32;;;7.93;;
29686;SDS011;16599;47.078;15.536;2023-04-15T05:10:24;10.15;;;7.40;;
29686;SDS011;16599;47.078;15.536;2023-04-15T05:12:51;12.68;;;8.98;;
29686;SDS011;16599;47.078;15.536;2023-04-15T05:15:18;12.80;;;9.15;;
29686;SDS011;16599;47.078;15.536;2023-04-15T05:17:45;15.27;;;8.75;;
29686;SDS011;16599;47.078;15.536;2023-04-15T05:20:12;11.13;;;8.20;;
29686;SDS011;16599;47.078;15.536;2023-04-15T05:22:39;12.70;;;8.48;;
29686;SDS011;16599;47.078;15.536;2023-04-15T05:25:06;11.63;;;8.63;;
29686;SDS011;16599;47.078;15.536;2023-04-15T05:27:34;12.10;;;8.80;;
29686;SDS011;16599;47.078;15.536;2023-04-15T05:30:01;11.95;;;8.70;;
29686;SDS011;16599;47.078;15.536;2023-04-15T05:32:28;18.27;;;10.07;;
29686;SDS011;16599;47.078;15.536;2023-04-15T05:34:55;17.05;;;12.32;;
29686;SDS011;16599;47.078;15.536;2023-04-15T05:37:21;12.55;;;8.73;;
29686;SDS011;16599;47.078;15.536;2023-04-15T05:39:48;15.43;;;10.32;;
29686;SDS011;16599;47.078;15.536;2023-04-15T05:42:15;14.18;;;10.43;;
29686;SDS011;16599;47.078;15.536;2023-04-15T05:44:42;13.88;;;9.65;;
29686;SDS011;16599;47.078;15.536;2023-04-15T05:47:09;14.23;;;9.48;;
29686;SDS011;16599;47.078;15.536;2023-04-15T05:49:36;14.20;;;9.00;;
29686;SDS011;16599;47.078;15.536;2023-04-15T05:52:03;13.90;;;9.82;;
29686;SDS011;16599;47.078;15.536;2023-04-15T05:54:30;12.13;;;8.70;;
29686;SDS011;16599;47.078;15.536;2023-04-15T05:56:56;11.63;;;8.77;;
29686;SDS011;16599;47.078;15.536;2023-04-15T05:59:24;15.35;;;9.75;;
29686;SDS011;16599;47.078;15.536;2023-04-15T06:01:51;11.43;;;8.73;;
29686;SDS011;16599;47.078;15.536;2023-04-15T06:04:18;12.63;;;9.52;;
29686;SDS011;16599;47.078;15.536;2023-04-15T06:06:45;14.02;;;9.10;;
29686;SDS011;16599;47.078;15.536;2023-04-15T06:09:12;14.15;;;8.85;;
29686;SDS011;16599;47.078;15.536;2023-04-15T06:11:39;13.77;;;9.18;;
29686;SDS011;16599;47.078;15.536;2023-04-15T06:14:06;10.05;;;7.93;;
29686;SDS011;16599;47.078;15.536;2023-04-15T06:16:33;12.65;;;9.02;;
29686;SDS011;16599;47.078;15.536;2023-04-15T06:19:02;14.40;;;10.55;;
29686;SDS011;16599;47.078;15.536;2023-04-15T06:21:29;11.95;;;8.70;;
29686;SDS011;16599;47.078;15.536;2023-04-15T06:23:57;12.85;;;9.75;;
29686;SDS011;16599;47.078;15.536;2023-04-15T06:26:26;11.60;;;9.00;;
29686;SDS011;16599;47.078;15.536;2023-04-15T06:28:54;13.25;;;9.95;;
29686;SDS011;16599;47.078;15.536;2023-04-15T06:31:20;10.88;;;9.02;;
29686;SDS011;16599;47.078;15.536;2023-04-15T06:33:48;11.27;;;8.50;;
29686;SDS011;16599;47.078;15.536;2023-04-15T06:36:14;12.65;;;9.02;;
29686;SDS011;16599;47.078;15.536;2023-04-15T06:38:41;11.20;;;8.77;;
29686;SDS011;16599;47.078;15.536;2023-04-15T06:41:08;11.70;;;8.32;;
29686;SDS011;16599;47.078;15.536;2023-04-15T06:43:35;26.70;;;14.45;;
29686;SDS011;16599;47.078;15.536;2023-04-15T06:46:02;14.77;;;9.75;;
29686;SDS011;16599;47.078;15.536;2023-04-15T06:48:35;12.75;;;8.18;;
29686;SDS011;16599;47.078;15.536;2023-04-15T06:51:03;11.60;;;8.70;;
29686;SDS011;16599;47.078;15.536;2023-04-15T06:53:30;11.50;;;8.55;;
29686;SDS011;16599;47.078;15.536;2023-04-15T06:55:57;11.25;;;8.43;;
29686;SDS011;16599;47.078;15.536;2023-04-15T06:58:24;15.05;;;9.13;;
29686;SDS011;16599;47.078;15.536;2023-04-15T07:00:51;13.15;;;8.63;;
29686;SDS011;16599;47.078;15.536;2023-04-15T07:03:18;10.93;;;7.13;;
29686;SDS011;16599;47.078;15.536;2023-04-15T07:05:45;12.75;;;8.30;;
29686;SDS011;16599;47.078;15.536;2023-04-15T07:08:12;10.40;;;6.85;;
29686;SDS011;16599;47.078;15.536;2023-04-15T07:10:39;10.35;;;7.38;;
29686;SDS011;16599;47.078;15.536;2023-04-15T07:13:06;19.15;;;14.23;;
29686;SDS011;16599;47.078;15.536;2023-04-15T07:15:34;10.43;;;7.40;;
29686;SDS011;16599;47.078;15.536;2023-04-15T07:18:01;10.80;;;7.47;;
29686;SDS011;16599;47.078;15.536;2023-04-15T07:20:28;9.60;;;7.32;;
29686;SDS011;16599;47.078;15.536;2023-04-15T07:22:55;12.23;;;8.13;;
29686;SDS011;16599;47.078;15.536;2023-04-15T07:25:21;10.27;;;6.75;;
29686;SDS011;16599;47.078;15.536;2023-04-15T07:27:48;8.85;;;6.97;;
29686;SDS011;16599;47.078;15.536;2023-04-15T07:30:15;8.20;;;6.20;;
29686;SDS011;16599;47.078;15.536;2023-04-15T07:32:42;10.30;;;7.13;;
29686;SDS011;16599;47.078;15.536;2023-04-15T07:35:09;9.35;;;6.93;;
29686;SDS011;16599;47.078;15.536;2023-04-15T07:37:36;8.40;;;6.53;;
29686;SDS011;16599;47.078;15.536;2023-04-15T07:40:03;9.80;;;6.47;;
29686;SDS011;16599;47.078;15.536;2023-04-15T07:42:32;10.73;;;6.95;;
29686;SDS011;16599;47.078;15.536;2023-04-15T07:44:59;8.90;;;6.10;;
29686;SDS011;16599;47.078;15.536;2023-04-15T07:47:26;9.80;;;7.00;;
29686;SDS011;16599;47.078;15.536;2023-04-15T07:49:53;9.07;;;6.68;;
29686;SDS011;16599;47.078;15.536;2023-04-15T07:52:20;10.27;;;7.13;;
29686;SDS011;16599;47.078;15.536;2023-04-15T07:54:47;14.07;;;7.50;;
29686;SDS011;16599;47.078;15.536;2023-04-15T07:57:14;13.50;;;7.57;;
29686;SDS011;16599;47.078;15.536;2023-04-15T07:59:42;13.45;;;7.85;;
29686;SDS011;16599;47.078;15.536;2023-04-15T08:02:09;12.95;;;8.73;;
29686;SDS011;16599;47.078;15.536;2023-04-15T08:04:37;12.52;;;7.95;;
29686;SDS011;16599;47.078;15.536;2023-04-15T08:07:04;12.85;;;9.20;;
29686;SDS011;16599;47.078;15.536;2023-04-15T08:09:32;13.57;;;10.18;;
29686;SDS011;16599;47.078;15.536;2023-04-15T08:11:59;9.95;;;7.55;;
29686;SDS011;16599;47.078;15.536;2023-04-15T08:14:27;12.63;;;7.45;;
29686;SDS011;16599;47.078;15.536;2023-04-15T08:16:54;11.52;;;8.05;;
29686;SDS011;16599;47.078;15.536;2023-04-15T08:19:21;12.70;;;7.68;;
29686;SDS011;16599;47.078;15.536;2023-04-15T08:21:49;11.05;;;6.97;;
29686;SDS011;16599;47.078;15.536;2023-04-15T08:24:17;10.23;;;6.90;;
29686;SDS011;16599;47.078;15.536;2023-04-15T08:26:43;8.35;;;6.43;;
29686;SDS011;16599;47.078;15.536;2023-04-15T08:29:12;11.75;;;7.65;;
29686;SDS011;16599;47.078;15.536;2023-04-15T08:31:39;7.25;;;5.40;;
29686;SDS011;16599;47.078;15.536;2023-04-15T08:34:06;8.70;;;6.45;;
29686;SDS011;16599;47.078;15.536;2023-04-15T08:36:33;11.70;;;5.80;;
29686;SDS011;16599;47.078;15.536;2023-04-15T08:39:00;9.73;;;6.45;;
29686;SDS011;16599;47.078;15.536;2023-04-15T08:41:27;9.65;;;5.45;;
29686;SDS011;16599;47.078;15.536;2023-04-15T08:44:05;6.25;;;5.35;;
29686;SDS011;16599;47.078;15.536;2023-04-15T08:46:32;8.00;;;5.50;;
29686;SDS011;16599;47.078;15.536;2023-04-15T08:49:01;5.78;;;4.60;;
29686;SDS011;16599;47.078;15.536;2023-04-15T08:51:30;5.63;;;5.03;;
29686;SDS011;16599;47.078;15.536;2023-04-15T08:53:59;5.60;;;4.88;;
29686;SDS011;16599;47.078;15.536;2023-04-15T08:56:27;7.65;;;5.00;;
29686;SDS011;16599;47.078;15.536;2023-04-15T08:59:00;8.52;;;3.78;;
29686;SDS011;16599;47.078;15.536;2023-04-15T09:01:28;9.95;;;4.60;;
29686;SDS011;16599;47.078;15.536;2023-04-15T09:03:55;6.28;;;5.22;;
29686;SDS011;16599;47.078;15.536;2023-04-15T09:06:22;7.18;;;4.57;;
29686;SDS011;16599;47.078;15.536;2023-04-15T09:08:50;5.95;;;4.28;;
29686;SDS011;16599;47.078;15.536;2023-04-15T09:11:18;5.38;;;4.03;;
29686;SDS011;16599;47.078;15.536;2023-04-15T09:13:46;6.55;;;4.47;;
29686;SDS011;16599;47.078;15.536;2023-04-15T09:16:14;6.75;;;4.57;;
29686;SDS011;16599;47.078;15.536;2023-04-15T09:18:41;5.63;;;4.20;;
29686;SDS011;16599;47.078;15.536;2023-04-15T09:21:12;7.28;;;4.10;;
29686;SDS011;16599;47.078;15.536;2023-04-15T09:23:53;5.75;;;3.83;;
29686;SDS011;16599;47.078;15.536;2023-04-15T09:26:34;6.60;;;4.00;;
29686;SDS011;16599;47.078;15.536;2023-04-15T09:29:09;7.07;;;3.95;;
29686;SDS011;16599;47.078;15.536;2023-04-15T09:31:39;6.10;;;3.92;;
29686;SDS011;16599;47.078;15.536;2023-04-15T09:34:07;3.97;;;3.58;;
29686;SDS011;16599;47.078;15.536;2023-04-15T09:36:53;4.88;;;3.85;;
29686;SDS011;16599;47.078;15.536;2023-04-15T09:39:21;5.32;;;3.58;;
29686;SDS011;16599;47.078;15.536;2023-04-15T09:42:04;4.40;;;3.85;;
29686;SDS011;16599;47.078;15.536;2023-04-15T09:44:34;3.63;;;3.20;;
29686;SDS011;16599;47.078;15.536;2023-04-15T09:47:01;5.57;;;3.60;;
29686;SDS011;16599;47.078;15.536;2023-04-15T09:49:28;4.50;;;3.22;;
29686;SDS011;16599;47.078;15.536;2023-04-15T09:52:01;4.35;;;3.60;;
29686;SDS011;16599;47.078;15.536;2023-04-15T09:54:32;5.55;;;3.70;;
29686;SDS011;16599;47.078;15.536;2023-04-15T09:57:06;4.97;;;2.83;;
29686;SDS011;16599;47.078;15.536;2023-04-15T09:59:35;3.65;;;3.22;;
29686;SDS011;16599;47.078;15.536;2023-04-15T10:02:05;3.75;;;3.28;;
29686;SDS011;16599;47.078;15.536;2023-04-15T10:04:34;3.88;;;3.03;;
29686;SDS011;16599;47.078;15.536;2023-04-15T10:07:04;3.72;;;3.00;;
29686;SDS011;16599;47.078;15.536;2023-04-15T10:09:31;4.18;;;3.15;;
29686;SDS011;16599;47.078;15.536;2023-04-15T10:12:00;7.38;;;3.10;;
29686;SDS011;16599;47.078;15.536;2023-04-15T10:14:31;3.75;;;3.05;;
29686;SDS011;16599;47.078;15.536;2023-04-15T10:17:01;3.90;;;2.90;;
29686;SDS011;16599;47.078;15.536;2023-04-15T10:19:30;7.55;;;3.67;;
29686;SDS011;16599;47.078;15.536;2023-04-15T10:21:58;4.07;;;3.00;;
29686;SDS011;16599;47.078;15.536;2023-04-15T10:24:25;5.20;;;2.90;;
29686;SDS011;16599;47.078;15.536;2023-04-15T10:26:53;6.60;;;3.13;;
29686;SDS011;16599;47.078;15.536;2023-04-15T10:29:20;3.33;;;2.45;;
29686;SDS011;16599;47.078;15.536;2023-04-15T10:31:48;5.30;;;3.17;;
29686;SDS011;16599;47.078;15.536;2023-04-15T10:34:16;4.43;;;3.00;;
29686;SDS011;16599;47.078;15.536;2023-04-15T10:36:44;6.50;;;3.28;;
29686;SDS011;16599;47.078;15.536;2023-04-15T10:39:37;3.95;;;3.20;;
29686;SDS011;16599;47.078;15.536;2023-04-15T10:42:09;4.05;;;3.20;;
29686;SDS011;16599;47.078;15.536;2023-04-15T10:44:41;4.10;;;3.08;;
29686;SDS011;16599;47.078;15.536;2023-04-15T10:47:11;4.45;;;2.45;;
29686;SDS011;16599;47.078;15.536;2023-04-15T10:49:49;3.72;;;2.65;;
29686;SDS011;16599;47.078;15.536;2023-04-15T10:52:21;5.38;;;3.10;;
29686;SDS011;16599;47.078;15.536;2023-04-15T10:54:49;2.80;;;2.50;;
29686;SDS011;16599;47.078;15.536;2023-04-15T10:57:50;2.88;;;2.58;;
29686;SDS011;16599;47.078;15.536;2023-04-15T11:00:24;4.22;;;2.45;;
29686;SDS011;16599;47.078;15.536;2023-04-15T11:02:58;5.05;;;2.92;;
29686;SDS011;16599;47.078;15.536;2023-04-15T11:08:18;3.65;;;2.70;;
29686;SDS011;16599;47.078;15.536;2023-04-15T11:13:16;5.20;;;2.70;;
29686;SDS011;16599;47.078;15.536;2023-04-15T11:15:48;3.38;;;2.60;;
29686;SDS011;16599;47.078;15.536;2023-04-15T11:18:16;4.38;;;3.00;;
29686;SDS011;16599;47.078;15.536;2023-04-15T11:20:48;3.47;;;3.08;;
29686;SDS011;16599;47.078;15.536;2023-04-15T11:26:12;3.53;;;2.60;;
29686;SDS011;16599;47.078;15.536;2023-04-15T11:28:41;2.92;;;2.30;;
29686;SDS011;16599;47.078;15.536;2023-04-15T11:31:11;3.08;;;2.50;;
29686;SDS011;16599;47.078;15.536;2023-04-15T11:36:35;3.13;;;2.47;;
29686;SDS011;16599;47.078;15.536;2023-04-15T11:39:03;3.03;;;2.25;;
29686;SDS011;16599;47.078;15.536;2023-04-15T11:41:32;7.38;;;3.47;;
29686;SDS011;16599;47.078;15.536;2023-04-15T11:44:01;3.47;;;2.47;;
29686;SDS011;16599;47.078;15.536;2023-04-15T11:46:29;8.25;;;2.20;;
29686;SDS011;16599;47.078;15.536;2023-04-15T11:48:57;3.80;;;2.38;;
29686;SDS011;16599;47.078;15.536;2023-04-15T11:51:23;3.78;;;2.55;;
29686;SDS011;16599;47.078;15.536;2023-04-15T11:53:50;4.50;;;2.65;;
29686;SDS011;16599;47.078;15.536;2023-04-15T11:56:21;7.03;;;2.42;;
29686;SDS011;16599;47.078;15.536;2023-04-15T11:58:53;4.00;;;2.42;;
29686;SDS011;16599;47.078;15.536;2023-04-15T12:01:37;4.45;;;2.22;;
29686;SDS011;16599;47.078;15.536;2023-04-15T12:07:05;12.25;;;6.35;;
29686;SDS011;16599;47.078;15.536;2023-04-15T12:09:36;7.35;;;4.43;;
29686;SDS011;16599;47.078;15.536;2023-04-15T12:12:03;4.13;;;2.95;;
29686;SDS011;16599;47.078;15.536;2023-04-15T12:14:30;4.55;;;3.55;;
29686;SDS011;16599;47.078;15.536;2023-04-15T12:16:58;4.97;;;2.55;;
29686;SDS011;16599;47.078;15.536;2023-04-15T12:19:40;3.17;;;2.42;;
29686;SDS011;16599;47.078;15.536;2023-04-15T12:22:08;3.70;;;2.55;;
29686;SDS011;16599;47.078;15.536;2023-04-15T12:24:37;3.30;;;2.30;;
29686;SDS011;16599;47.078;15.536;2023-04-15T12:27:08;3.33;;;2.33;;
29686;SDS011;16599;47.078;15.536;2023-04-15T12:34:39;3.30;;;2.15;;
29686;SDS011;16599;47.078;15.536;2023-04-15T12:37:08;4.75;;;2.72;;
29686;SDS011;16599;47.078;15.536;2023-04-15T12:39:37;7.45;;;2.70;;
29686;SDS011;16599;47.078;15.536;2023-04-15T12:42:05;2.95;;;2.10;;
29686;SDS011;16599;47.078;15.536;2023-04-15T12:44:33;5.05;;;2.72;;
29686;SDS011;16599;47.078;15.536;2023-04-15T12:47:01;3.33;;;2.30;;
29686;SDS011;16599;47.078;15.536;2023-04-15T12:49:30;5.18;;;2.20;;
29686;SDS011;16599;47.078;15.536;2023-04-15T12:51:58;5.50;;;2.40;;
29686;SDS011;16599;47.078;15.536;2023-04-15T12:54:26;2.40;;;2.20;;
29686;SDS011;16599;47.078;15.536;2023-04-15T12:56:54;2.10;;;1.70;;
29686;SDS011;16599;47.078;15.536;2023-04-15T12:59:21;2.85;;;2.08;;
29686;SDS011;16599;47.078;15.536;2023-04-15T13:01:49;3.03;;;1.90;;
29686;SDS011;16599;47.078;15.536;2023-04-15T13:04:18;4.43;;;3.50;;
29686;SDS011;16599;47.078;15.536;2023-04-15T13:06:46;3.03;;;2.03;;
29686;SDS011;16599;47.078;15.536;2023-04-15T13:09:13;4.50;;;2.03;;
29686;SDS011;16599;47.078;15.536;2023-04-15T13:11:41;5.30;;;2.08;;
29686;SDS011;16599;47.078;15.536;2023-04-15T13:14:08;4.00;;;2.40;;
29686;SDS011;16599;47.078;15.536;2023-04-15T13:16:37;4.40;;;2.08;;
29686;SDS011;16599;47.078;15.536;2023-04-15T13:19:04;5.70;;;2.20;;
29686;SDS011;16599;47.078;15.536;2023-04-15T13:21:31;3.05;;;2.08;;
29686;SDS011;16599;47.078;15.536;2023-04-15T13:24:01;8.13;;;2.20;;
29686;SDS011;16599;47.078;15.536;2023-04-15T13:26:29;3.25;;;2.63;;
29686;SDS011;16599;47.078;15.536;2023-04-15T13:28:56;2.45;;;1.95;;
29686;SDS011;16599;47.078;15.536;2023-04-15T13:31:23;4.03;;;2.25;;
29686;SDS011;16599;47.078;15.536;2023-04-15T13:33:50;3.65;;;2.53;;
29686;SDS011;16599;47.078;15.536;2023-04-15T13:36:17;3.75;;;2.28;;
29686;SDS011;16599;47.078;15.536;2023-04-15T13:38:44;5.72;;;2.90;;
29686;SDS011;16599;47.078;15.536;2023-04-15T13:41:14;2.83;;;2.35;;
29686;SDS011;16599;47.078;15.536;2023-04-15T13:43:41;4.65;;;2.42;;
29686;SDS011;16599;47.078;15.536;2023-04-15T13:46:08;3.72;;;2.85;;
29686;SDS011;16599;47.078;15.536;2023-04-15T13:48:34;8.95;;;3.70;;
29686;SDS011;16599;47.078;15.536;2023-04-15T13:51:01;7.97;;;7.18;;
29686;SDS011;16599;47.078;15.536;2023-04-15T13:53:28;7.57;;;3.50;;
29686;SDS011;16599;47.078;15.536;2023-04-15T13:56:04;5.38;;;3.35;;
29686;SDS011;16599;47.078;15.536;2023-04-15T13:58:35;2.90;;;2.60;;
29686;SDS011;16599;47.078;15.536;2023-04-15T14:01:24;7.25;;;4.53;;
29686;SDS011;16599;47.078;15.536;2023-04-15T14:06:45;5.03;;;2.72;;
29686;SDS011;16599;47.078;15.536;2023-04-15T14:09:12;4.28;;;2.97;;
29686;SDS011;16599;47.078;15.536;2023-04-15T14:11:39;2.97;;;1.80;;
29686;SDS011;16599;47.078;15.536;2023-04-15T14:14:06;16.33;;;4.63;;
29686;SDS011;16599;47.078;15.536;2023-04-15T14:16:33;5.00;;;2.50;;
29686;SDS011;16599;47.078;15.536;2023-04-15T14:19:01;2.60;;;1.63;;
29686;SDS011;16599;47.078;15.536;2023-04-15T14:21:28;1.65;;;1.55;;
29686;SDS011;16599;47.078;15.536;2023-04-15T14:23:57;2.42;;;1.80;;
29686;SDS011;16599;47.078;15.536;2023-04-15T14:26:24;3.30;;;1.90;;
29686;SDS011;16599;47.078;15.536;2023-04-15T14:28:51;6.03;;;3.40;;
29686;SDS011;16599;47.078;15.536;2023-04-15T14:31:18;6.00;;;3.15;;
29686;SDS011;16599;47.078;15.536;2023-04-15T14:33:45;7.47;;;2.70;;
29686;SDS011;16599;47.078;15.536;2023-04-15T14:36:11;10.88;;;4.10;;
29686;SDS011;16599;47.078;15.536;2023-04-15T14:38:38;11.70;;;5.05;;
29686;SDS011;16599;47.078;15.536;2023-04-15T14:41:06;6.63;;;3.50;;
29686;SDS011;16599;47.078;15.536;2023-04-15T14:43:33;4.20;;;2.70;;
29686;SDS011;16599;47.078;15.536;2023-04-15T14:46:00;9.35;;;8.45;;
29686;SDS011;16599;47.078;15.536;2023-04-15T14:48:27;4.47;;;1.70;;
29686;SDS011;16599;47.078;15.536;2023-04-15T14:50:56;2.05;;;1.48;;
29686;SDS011;16599;47.078;15.536;2023-04-15T14:53:23;2.28;;;1.83;;
29686;SDS011;16599;47.078;15.536;2023-04-15T14:55:50;1.67;;;1.35;;
29686;SDS011;16599;47.078;15.536;2023-04-15T14:58:16;1.88;;;1.60;;